This is the latest recevied weather packets stored in our database for station/object BMCB-35. If no packets are shown the sender has not sent any weather packets the latest 10 day(s).
| Time | Temp. | Humidity | Pressure | Rain* | Wind** | Luminosity | Snow |
|---|---|---|---|---|---|---|---|
| 1778188840 | 10.56° C | 85% | 1017.3 hPa | 0 mm | - | 0 W/m² | - |
| 1778187611 | 11.11° C | 84% | 1017.2 hPa | 0 mm | - | 0 W/m² | - |
| 1778186434 | 11.11° C | 82% | 1017.1 hPa | 0 mm | - | 0 W/m² | - |
| 1778185826 | 11.11° C | 82% | 1017 hPa | 0 mm | - | 0 W/m² | - |
| 1778184634 | 11.11° C | 81% | 1016.9 hPa | 0 mm | - | 0 W/m² | - |
| 1778182848 | 11.67° C | 79% | 1016.7 hPa | 0 mm | - | 0 W/m² | - |
| 1778181038 | 12.78° C | 70% | 1016.4 hPa | 0 mm | - | 0 W/m² | - |
| 1778180414 | 12.78° C | 70% | 1016.4 hPa | 0 mm | - | 0 W/m² | - |
| 1778179835 | 13.33° C | 68% | 1016.3 hPa | 0 mm | - | 2 W/m² | - |
| 1778178036 | 13.33° C | 62% | 1016.1 hPa | 0 mm | - | 17 W/m² | - |
| 1778177432 | 13.33° C | 61% | 1016 hPa | 0 mm | - | 23 W/m² | - |
| 1778176806 | 13.33° C | 61% | 1016 hPa | 0 mm | - | 23 W/m² | - |
| 1778176236 | 13.89° C | 62% | 1016 hPa | 0 mm | - | 36 W/m² | - |
| 1778175642 | 13.89° C | 60% | 1016 hPa | 0 mm | - | 43 W/m² | - |
| 1778175004 | 13.89° C | 60% | 1016 hPa | 0 mm | - | 43 W/m² | - |
| 1778173805 | 13.89° C | 65% | 1015.9 hPa | 0 mm | - | 41 W/m² | - |
| 1778173804 | 13.89° C | 65% | 1015.9 hPa | 0 mm | - | 48 W/m² | - |
| 1778170813 | 13.89° C | 62% | 1015.9 hPa | 0 mm | - | 101 W/m² | - |
| 1778169636 | 13.89° C | 60% | 1015.9 hPa | 0 mm | - | 92 W/m² | - |
| 1778167230 | 14.44° C | 60% | 1015.8 hPa | 0 mm | - | 193 W/m² | - |
| 1778166609 | 14.44° C | 61% | 1015.9 hPa | 0 mm | - | 246 W/m² | - |
| 1778166011 | 13.89° C | 60% | 1016 hPa | 0 mm | - | 219 W/m² | - |
| 1778158246 | 13.33° C | 64% | 1016.2 hPa | 0 mm | - | 219 W/m² | - |
| 1778155210 | 13.33° C | 63% | 1016.1 hPa | 0 mm | - | 188 W/m² | - |
| 1778154642 | 13.33° C | 63% | 1016.1 hPa | 0 mm | - | 150 W/m² | - |
* Rain latest hour (hover to see other rain measurements)
** Current wind speed in m/s (hover to see current wind gust speed)